logo
Games tagged Fishing
# Game Release date
Price
Score rank
(Userscore / Metascore)
Owners
Players
Playtime (Median)
Developer(s)
Publisher(s)
1 DAVE THE DIVER Jun 28, 2023 $19.99N/A (N/A/90%)2,000,000 .. 5,000,0000%00:00 (00:00)MINTROCKETMINTROCKET
2 Spiritfarer: Farewell Edition Aug 18, 2020 $29.99N/A (N/A/84%)1,000,000 .. 2,000,0000%00:00 (00:00)Thunder Lotus GamesThunder Lotus Games
3 Rainbow Billy: The Curse of the Leviathan Oct 5, 2021 $19.99N/A (N/A/81%)0 .. 20,0000%00:00 (00:00)ManaVoid EntertainmentSkybound Games
4 Moonstone Island Sep 20, 2023 $19.99N/A (N/A/80%)0 .. 20,0000%00:00 (00:00)Studio SupersoftRaw Fury
5 Potion Permit Sep 22, 2022 $19.99N/A (N/A/72%)200,000 .. 500,0000%00:00 (00:00)MassHive MediaPQube
6 Tribe: Primitive Builder Oct 12, 2023 $19.99N/A (N/A/64%)20,000 .. 50,0000%00:00 (00:00)Space Boat Studios, Baked GamesPolyslash
7 Hokko Life Sep 27, 2022 $3.99N/A (N/A/54%)100,000 .. 200,0000%00:00 (00:00)Gizmo GardenTeam17
8 Russian Fishing 4 Nov 10, 2021 FreeN/A (N/A)2,000,000 .. 5,000,0000%00:00 (00:00)FishSoft LLCFishSoft LLC
9 Key To Heaven Apr 23, 2021 FreeN/A (N/A)50,000 .. 100,0000%00:00 (00:00)Far side of North StudioFar side of North Studio
10 PaperCraft Feb 25, 2021 N/AN/A (N/A)0 .. 20,0000%00:00 (00:00)Cinnamancer StudiosCinnamancer Studios
11 Survival Engine Feb 22, 2021 FreeN/A (N/A)0 .. 20,0000%00:00 (00:00)Indie MarcIndie Marc
12 Super Raft Boat Feb 21, 2021 FreeN/A (N/A)100,000 .. 200,0000%00:00 (00:00)Jason Gertner, Carson Kompon, Yukon Wainczak, Jennifer KindlShattered Journal Games
13 There Was A Dream Feb 11, 2021 N/AN/A (N/A)0 .. 20,0000%00:00 (00:00)Keydare ProjectKeydare Project
14 Farmer's Life: Prologue Jan 15, 2021 FreeN/A (N/A)0 .. 20,0000%00:00 (00:00)FreeMind S.A.FreeMind S.A., PlayWay S.A.
15 The Fishery Oct 14, 2020 N/AN/A (N/A)0 .. 20,0000%00:00 (00:00)Carey WhiteCarey White
16 Lost Remnant: The End Tides Aug 24, 2020 FreeN/A (N/A)20,000 .. 50,0000%00:00 (00:00)Jeff SproulJeff Sproul
17 街机捕鱼Arcade Fishing Aug 4, 2020 FreeN/A (N/A)50,000 .. 100,0000%00:00 (00:00)Arcade FishingArcade Fishing
18 Everafter Falls Jun 20, 2024 $17.99N/A (N/A)0 .. 20,0000%00:00 (00:00)SquareHuskyAkupara Games
19 Machorium -Muscle Aquarium Simulator- May 28, 2024 $7.99N/A (N/A)0 .. 20,0000%00:00 (00:00)NEOLAVIindiegamesjapan
20 Infinite Mana May 28, 2024 $24.99N/A (N/A)0 .. 20,0000%00:00 (00:00)Wonderlust GamesWonderlust Games
21 FishOrChicken May 27, 2024 $2.99N/A (N/A)0 .. 20,0000%00:00 (00:00)XXLXXL
22 Ships At Sea May 23, 2024 $24.99N/A (N/A)100,000 .. 200,0000%00:00 (00:00)Misc GamesMisc Games
23 Aquarium Land May 20, 2024 $4.99N/A (N/A)0 .. 20,0000%00:00 (00:00)Homa GamesQubicGames
24 Seablip May 17, 2024 $14.99N/A (N/A)20,000 .. 50,0000%00:00 (00:00)Jardar SolliVibedy
25 Impossible Island May 13, 2024 $4.99N/A (N/A)0 .. 20,0000%00:00 (00:00)Studio Gathering StormStudio Gathering Storm
26 Cryptmaster May 9, 2024 $24.99N/A (N/A)50,000 .. 100,0000%00:00 (00:00)Paul Hart, Lee Williams, Akupara GamesAkupara Games
27 Brocula May 9, 2024 $19.99N/A (N/A)0 .. 20,0000%00:00 (00:00)Destroyer DoggoDestroyer Doggo
28 Project Real May 7, 2024 $5.99N/A (N/A)0 .. 20,0000%00:00 (00:00)HKGamesStudioGoGo Games Interactive
29 Farm Together 2 May 7, 2024 $19.99N/A (N/A)50,000 .. 100,0000%00:00 (00:00)Milkstone StudiosMilkstone Studios
30 Tempus Bound May 3, 2024 $4.31N/A (N/A)0 .. 20,0000%00:00 (00:00)Jasonsumm GamesJasonsumm Games
31 Pocket Idler: Fishing Pond May 1, 2024 $2.99N/A (N/A)0 .. 20,0000%00:00 (00:00)Inner Realm StudiosInner Realm Studios
32 Field of Growth: A Farmer's Odyssey Apr 25, 2024 $14.99N/A (N/A)0 .. 20,0000%00:00 (00:00)SCLITIFY ITSCLITIFY IT
33 Whisker Waters Apr 25, 2024 $19.99N/A (N/A)0 .. 20,0000%00:00 (00:00)Underbite GamesMerge Games, Maximum Entertainment
34 Survival Nation: Lost Horizon Apr 15, 2024 $14.99N/A (N/A)0 .. 20,0000%00:00 (00:00)Wenkly Studio Sp. z o.o.indie.io
35 Fruitio Apr 9, 2024 $0.99N/A (N/A)0 .. 20,0000%00:00 (00:00)https://www.superstargames.co.ukGolocobiz Limited
36 Aquarist Mar 29, 2024 $11.19N/A (N/A)20,000 .. 50,0000%00:00 (00:00)FreeMind S.A.PlayWay S.A., FreeMind S.A.
37 Adventure of Rikka - The Cursed Kingdom Mar 28, 2024 $9.99N/A (N/A)20,000 .. 50,0000%00:00 (00:00)Poorly Drawn SquidPoorly Drawn Squid
38 Megis Adventure Mar 24, 2024 $10.99N/A (N/A)0 .. 20,0000%00:00 (00:00)Megis ChestMegis Chest
39 Lost Love Island Mar 22, 2024 $7.99N/A (N/A)0 .. 20,0000%00:00 (00:00)OneCoinSaikey Studios
40 Chill Town Mar 22, 2024 $11.99N/A (N/A)0 .. 20,0000%00:00 (00:00)Low-Hi TechLow-Hi Tech
41 Angler Quest Mar 13, 2024 $9.99N/A (N/A)0 .. 20,0000%00:00 (00:00)BDTH StudiosBDTH Studios
42 Tales of Morrow Mar 8, 2024 $14.99N/A (N/A)0 .. 20,0000%00:00 (00:00)GameMechanicGameMechanic
43 Camp Canyonwood Feb 26, 2024 $19.99N/A (N/A)100,000 .. 200,0000%00:00 (00:00)Deli Interactive LLCGraffiti Games
44 Cozy Island Idle Feb 25, 2024 $2.99N/A (N/A)0 .. 20,0000%00:00 (00:00)Overaction Game Studio, ReiVaxOveraction Game Studio
45 LurkBait Twitch Fishing Feb 21, 2024 $7N/A (N/A)0 .. 20,0000%00:00 (00:00)BLAMCAM InteractiveBLAMCAM Interactive
46 Immortal Life Jan 17, 2024 $11.89N/A (N/A)100,000 .. 200,0000%00:00 (00:00)YiFang Studio2P Games
47 Landelver Jan 6, 2024 $14.99N/A (N/A)0 .. 20,0000%00:00 (00:00)XINGXIAN NETXINGXIAN NET
48 My Little Blood Cult: Let's Summon Demons Dec 14, 2023 $6.66N/A (N/A)0 .. 20,0000%00:00 (00:00)Dillo InteractiveDillo Interactive
49 Tales from The Dancing Moon Dec 12, 2023 $11.99N/A (N/A)0 .. 20,0000%00:00 (00:00)DjMonkeyDjMonkey
50 Captain Pawsome Dec 12, 2023 $14.99N/A (N/A)0 .. 20,0000%00:00 (00:00)Chicken LauncherAwaken Realms
51 Disney Dreamlight Valley Dec 5, 2023 $39.99N/A (N/A)500,000 .. 1,000,0000%00:00 (00:00)GameloftGameloft
52 Aquarist VR Dec 4, 2023 $2.99N/A (N/A)0 .. 20,0000%00:00 (00:00)FreeMind S.A.PlayWay S.A., FreeMind S.A.
53 Ludde Dec 1, 2023 $7.99N/A (N/A)0 .. 20,0000%00:00 (00:00)Shellander GamesShellander Games
54 Potion Brew: Co-op Nov 30, 2023 $4.99N/A (N/A)0 .. 20,0000%00:00 (00:00)Soulwarmers GamesSoulwarmers Games
55 Cute Farmer Life Nov 17, 2023 $4.99N/A (N/A)0 .. 20,0000%00:00 (00:00)SE32SE32
56 Coral Island Nov 14, 2023 $29.99N/A (N/A)500,000 .. 1,000,0000%00:00 (00:00)Stairway GamesHumble Games
57 Spellfield Nov 5, 2023 FreeN/A (N/A)0 .. 20,0000%00:00 (00:00)Zozizo StudioZozizo Studio
58 CatExpress Nov 5, 2023 $3.99N/A (N/A)0 .. 20,0000%00:00 (00:00)米萌工作室米萌工作室
59 Marine Glory Nov 3, 2023 $14.99N/A (N/A)0 .. 20,0000%00:00 (00:00)EnlargeramaEnlargerama
60 Melody of Seasons Nov 1, 2023 $14.99N/A (N/A)0 .. 20,0000%00:00 (00:00)Mike ThielenMike Thielen
61 圣维丹物语 Oct 30, 2023 $1.99N/A (N/A)0 .. 20,0000%00:00 (00:00)初生小麦初生小麦
62 Fish Game Oct 26, 2023 $24.99N/A (N/A)0 .. 20,0000%00:00 (00:00)A Shell in the Pit Games, Creative Ink GamesA Shell in the Pit Games
63 Fly Caster - VR Fly Fishing Oct 26, 2023 $9.99N/A (N/A)0 .. 20,0000%00:00 (00:00)Electronic ImaginationElectronic Imagination
64 Slow living with Princess Oct 15, 2023 $19.99N/A (N/A)50,000 .. 100,0000%00:00 (00:00)KADOKAWA, TSUKURITE.0UP GAMES
65 Manny's Oct 12, 2023 $7.99N/A (N/A)20,000 .. 50,0000%00:00 (00:00)Bonemeal ProductionsBonemeal Productions
66 Sundermead Oct 2, 2023 $14.99N/A (N/A)0 .. 20,0000%00:00 (00:00)JosephusJosephus
67 Harvest Moon: The Winds of Anthos Sep 27, 2023 $49.99N/A (N/A)0 .. 20,0000%00:00 (00:00)Appci Inc., Natsume Inc.Natsume Inc.
68 Mineko's Night Market Sep 26, 2023 $19.99N/A (N/A)0 .. 20,0000%00:00 (00:00)Meowza GamesHumble Games
69 Russian Village Simulator Sep 25, 2023 $14.99N/A (N/A)20,000 .. 50,0000%00:00 (00:00)VD Games, PropilGamesVD Games
70 负罪者:方石 Sep 21, 2023 $13.99N/A (N/A)0 .. 20,0000%00:00 (00:00)方石工作室方石工作室
71 Cozy Fishing Sep 17, 2023 $1.99N/A (N/A)0 .. 20,0000%00:00 (00:00)MyHand StudioMyHand Studio
72 BeatBeat Sep 12, 2023 $14.99N/A (N/A)0 .. 20,0000%00:00 (00:00)Janarik Games LLCJanarik Games LLC
73 Chillquarium Sep 6, 2023 $5.99N/A (N/A)200,000 .. 500,0000%00:00 (00:00)Ben ReberBen Reber
74 Rune Factory 3 Special Sep 5, 2023 $39.99N/A (N/A)0 .. 20,0000%00:00 (00:00)Marvelous Inc.XSEED Games, Marvelous USA, Inc., Marvelous
75 Shalnor Legends 2: Trials of Thunder Sep 5, 2023 $9.99N/A (N/A)0 .. 20,0000%00:00 (00:00)Johnny OstadJohnny Ostad
76 Dream Fire Aug 31, 2023 $9.99N/A (N/A)20,000 .. 50,0000%00:00 (00:00)World Games DevelopmentWorld Games Development
77 HG Adventure Aug 3, 2023 $13.99N/A (N/A)0 .. 20,0000%00:00 (00:00)皓际HG重工
78 Cornucopia Jul 31, 2023 $24.99N/A (N/A)0 .. 20,0000%00:00 (00:00)Subconscious GamesSubconscious Games
79 All-In-One Summer Sports VR Jul 30, 2023 $19.99N/A (N/A)0 .. 20,0000%00:00 (00:00)Appnori Inc.Appnori Inc.
80 Moondrop Jul 28, 2023 $14.99N/A (N/A)0 .. 20,0000%00:00 (00:00)Moonroof StudiosMoonroof Studios
81 Open Fishing XL Jul 22, 2023 $4.99N/A (N/A)0 .. 20,0000%00:00 (00:00)KunstaatKunstaat
82 Piscirazzi: Fish Photo Shooter Jul 17, 2023 $4.99N/A (N/A)50,000 .. 100,0000%00:00 (00:00)Ben FlavellBen Flavell
83 Farmer Simulator Jul 15, 2023 $2.69N/A (N/A)0 .. 20,0000%00:00 (00:00)Imperian Online ChebImperian Online Cheb
84 恶魔契约者 Jul 15, 2023 $1.99N/A (N/A)0 .. 20,0000%00:00 (00:00)16air16air
85 Catch & Cook: Fishing Adventure Jul 14, 2023 $9.99N/A (N/A)0 .. 20,0000%00:00 (00:00)Campfire StudioCampfire Studio
86 Blue Oak Bridge Jul 6, 2023 $24.99N/A (N/A)0 .. 20,0000%00:00 (00:00)Lemon Seed StudioLemon Seed Studio
87 Dating Simulator Jun 22, 2023 $4.99N/A (N/A)0 .. 20,0000%00:00 (00:00)piratecat gamesCheesecake Dev
88 Blind Fishes Jun 10, 2023 $1.99N/A (N/A)0 .. 20,0000%00:00 (00:00)NoiArtsNoiArts
89 Fallen Kingdom May 31, 2023 $9.99N/A (N/A)0 .. 20,0000%00:00 (00:00)Gurup StudiosGurup Studios
90 Everdream Valley May 30, 2023 $9.99N/A (N/A)0 .. 20,0000%00:00 (00:00)MooneatersUntold Tales, VARSAV Game Studios
91 GateTail May 26, 2023 $4.99N/A (N/A)0 .. 20,0000%00:00 (00:00)JofiniJofini
92 Love on Leave May 17, 2023 $24.99N/A (N/A)0 .. 20,0000%00:00 (00:00)qureate, Orgesta Inc.qureate
93 Ocean Cat May 7, 2023 $9.99N/A (N/A)0 .. 20,0000%00:00 (00:00)Donghai Art Game StudioDonghai Art Game Studio
94 GeraScopia May 5, 2023 $1.99N/A (N/A)0 .. 20,0000%00:00 (00:00)RoebRoeb
95 Grow Your Pets Apr 12, 2023 $4.99N/A (N/A)0 .. 20,0000%00:00 (00:00)Soulwarmers GamesSoulwarmers Games
96 Tropical Resort Story Apr 9, 2023 $8.99N/A (N/A)0 .. 20,0000%00:00 (00:00)Kairosoft Co.,LtdKairosoft Co.,Ltd
97 Little Crab Fisher Mar 31, 2023 FreeN/A (N/A)0 .. 20,0000%00:00 (00:00)Douglass InteractiveDouglass Interactive
98 DREDGE Mar 30, 2023 $16.24N/A (N/A)1,000,000 .. 2,000,0000%00:00 (00:00)Black Salt GamesTeam17
99 降妖神兵 Mar 30, 2023 $2.99N/A (N/A)0 .. 20,0000%00:00 (00:00)易远游戏易远游戏
100 Fisher's Qualm Mar 19, 2023 $2.99N/A (N/A)0 .. 20,0000%00:00 (00:00)Solder Spark StudiosSolder Spark Studios
101 Ovivim pra Sua Stream Mar 12, 2023 $9.99N/A (N/A)0 .. 20,0000%00:00 (00:00)Virgula Leal, Amon RibeiroJogo Joia
102 Phantom Island Mar 10, 2023 $7.99N/A (N/A)0 .. 20,0000%00:00 (00:00)DrTheBugDrTheBug
103 Sun Haven Mar 10, 2023 $17.49N/A (N/A)500,000 .. 1,000,0000%00:00 (00:00)Pixel Sprout StudiosPixel Sprout Studios
104 Saving Mei Mar 5, 2023 $3.99N/A (N/A)0 .. 20,0000%00:00 (00:00)SavingMSavingM
105 Evolution Tale Mar 2, 2023 $3.99N/A (N/A)0 .. 20,0000%00:00 (00:00)X Woomy Games, Abel Reyes, Isaac RamírezAbel Reyes, Isaac Ramírez
106 流浪荒岛 Feb 28, 2023 $4.99N/A (N/A)0 .. 20,0000%00:00 (00:00)lhtgameslhtgames
107 Sky traveler Feb 28, 2023 $10.99N/A (N/A)0 .. 20,0000%00:00 (00:00)DFRGAMESDFRGAMES
108 Tropicalia Feb 28, 2023 $14.99N/A (N/A)0 .. 20,0000%00:00 (00:00)Paulo Henrique FranqueiraPaulo Henrique Franqueira
109 The Grindstone Feb 25, 2023 $19.99N/A (N/A)20,000 .. 50,0000%00:00 (00:00)Wolfs Moon StudiosWolfs Moon Studios
110 Ephesus Feb 17, 2023 $4.99N/A (N/A)0 .. 20,0000%00:00 (00:00)The Pack StudiosThe Pack Studios
111 Blue Fish Yokohama Feb 17, 2023 $5.99N/A (N/A)0 .. 20,0000%00:00 (00:00)Slippy Fish StudioSlippy Fish Studio
112 IBIS AM Feb 17, 2023 $1.99N/A (N/A)0 .. 20,0000%00:00 (00:00)The Water MuseumThe Water Museum
113 Wild West Dynasty Feb 16, 2023 $26.99N/A (N/A)50,000 .. 100,0000%00:00 (00:00)Moon Punch StudioToplitz Productions
114 Survival Nation Feb 2, 2023 $29.99N/A (N/A)0 .. 20,0000%00:00 (00:00)Wenkly Studio Sp. z o.o.Wenkly Studio Sp. z o.o.
115 Our Summer Sports Feb 1, 2023 $9.99N/A (N/A)0 .. 20,0000%00:00 (00:00)SAT-BOXSAT-BOX
116 Ultra Fishing Jan 18, 2023 $3.99N/A (N/A)0 .. 20,0000%00:00 (00:00)Uğur ÇELİKUğur ÇELİK
117 Neptune's Garden Jan 13, 2023 $4.99N/A (N/A)0 .. 20,0000%00:00 (00:00)Rome Renner, Blueberry Cheesecake StudioBlueberry Cheesecake Studio
118 Darwin's Aquarium Jan 10, 2023 $14.99N/A (N/A)0 .. 20,0000%00:00 (00:00)Joachim Sester, Niels ten DijkeDarwin's Studio
119 Aquaculture Land: Fish Farming Simulation Jun 7, 2019 $9.99N/A (N/A)0 .. 20,0000%00:00 (00:00)Maulidan GamesMaulidan Games, Maple Whispering Limited
120 Crazy World VR Dec 21, 2022 $14.99N/A (N/A)0 .. 20,0000%00:00 (00:00)Pixelity Inc.Pixelity Inc.
121 Boat Train Nov 25, 2022 $0.99N/A (N/A)50,000 .. 100,0000%00:00 (00:00)Monkey Barrel Games, INCMonkey Barrel Games, INC
122 See Ya Later! Nov 21, 2022 $2.99N/A (N/A)0 .. 20,0000%00:00 (00:00)Mike KrowMike Krow
123 DORAEMON STORY OF SEASONS: Friends of the Great Kingdom Nov 1, 2022 $34.99N/A (N/A)0 .. 20,0000%00:00 (00:00)Marvelous Inc.Bandai Namco Entertainment
124 DREAMWILD Oct 31, 2022 $7.99N/A (N/A)0 .. 20,0000%00:00 (00:00)Fading ClubFading Club
125 Slot Shots Pinball Collection Oct 18, 2022 $9.99N/A (N/A)0 .. 20,0000%00:00 (00:00)Pinblend StudiosPinblend Studios
126 Island Berry Oct 14, 2022 $4.99N/A (N/A)0 .. 20,0000%00:00 (00:00)BooleanBoolean
127 Huge Jaws Oct 11, 2022 $24.99N/A (N/A)0 .. 20,0000%00:00 (00:00)Piece Of VoxelPiece Of Voxel
128 Isla Sinaloa Oct 10, 2022 $19.99N/A (N/A)0 .. 20,0000%00:00 (00:00)EnsenaSoftEnsenaSoft
129 Eat Fish, Get Achievements Oct 9, 2022 $2.99N/A (N/A)0 .. 20,0000%00:00 (00:00)DaSticksDaSticks
130 ValiDate: Struggling Singles in your Area Sep 28, 2022 $14.99N/A (N/A)0 .. 20,0000%00:00 (00:00)Veritable Joy StudiosVeritable Joy Studios
131 Salt 2: Shores of Gold Sep 20, 2022 $19.99N/A (N/A)50,000 .. 100,0000%00:00 (00:00)Lavaboots StudiosLavaboots Studios
132 100 hidden turtles Sep 3, 2022 $2.99N/A (N/A)20,000 .. 50,0000%00:00 (00:00)Anatoliy LoginovskikhAnatoliy Loginovskikh
133 Moon Whalers Sep 2, 2022 $4.99N/A (N/A)0 .. 20,0000%00:00 (00:00)Yusuke "JuicyChicken" HasegawaJuicyChickenGames
134 Mini Star Fishing Sep 1, 2022 $9.99N/A (N/A)0 .. 20,0000%00:00 (00:00)MACKINN7MACKINN7
135 Call of the Wild: The Angler Aug 31, 2022 $8.99N/A (N/A)200,000 .. 500,0000%00:00 (00:00)Expansive WorldsExpansive Worlds
136 Crisp's Charging Challenge Aug 29, 2022 $4.99N/A (N/A)20,000 .. 50,0000%00:00 (00:00)Lads Game StudioLads Game Studio
137 Fishing Game Aug 25, 2022 FreeN/A (N/A)0 .. 20,0000%00:00 (00:00)louis morelOakrot Games
138 Land of Zympaia The New Light Aug 24, 2022 $15.99N/A (N/A)0 .. 20,0000%00:00 (00:00)InjectWare™InjectWare™
139 Lighthouse Keeper Aug 23, 2022 $11.99N/A (N/A)0 .. 20,0000%00:00 (00:00)Stratera GamesStratera Games
140 Ultimate Fishing Simulator 2 Aug 22, 2022 $19.99N/A (N/A)50,000 .. 100,0000%00:00 (00:00)Silent Bear Studio, SHINING GAMESUltimate Games S.A.
141 Island Idle RPG Aug 19, 2022 $2.99N/A (N/A)0 .. 20,0000%00:00 (00:00)Overaction Game StudioOveraction Game Studio
142 Catizens Aug 17, 2022 $17.77N/A (N/A)0 .. 20,0000%00:00 (00:00)badopticsgamesHeroCraft PC
143 Midnight Zone Aug 3, 2022 $3.99N/A (N/A)0 .. 20,0000%00:00 (00:00)Package Games StudioPackage Games Studio
144 Retreat To Enen Aug 1, 2022 $24.99N/A (N/A)20,000 .. 50,0000%00:00 (00:00)Head Westindie.io
145 Harpoon Jul 23, 2022 $2.99N/A (N/A)0 .. 20,0000%00:00 (00:00)Laush Dmitriy SergeevichLaush Studio
146 Cheaphaven Jul 22, 2022 $7.99N/A (N/A)0 .. 20,0000%00:00 (00:00)Combo RoutineCombo Routine
147 The Sunny Life Jul 21, 2022 $9.99N/A (N/A)0 .. 20,0000%00:00 (00:00)Sino4 GamesSino4 Games
148 Penguins Can Fly Jul 19, 2022 $2.99N/A (N/A)0 .. 20,0000%00:00 (00:00)Joseph CookJoseph Cook
149 Dinkum Jul 14, 2022 $19.99N/A (N/A)500,000 .. 1,000,0000%00:00 (00:00)James BendonJames Bendon
150 Rune Factory 5 Jul 13, 2022 $39.99N/A (N/A)50,000 .. 100,0000%00:00 (00:00)Marvelous Inc.XSEED Games, Marvelous USA, Inc., Marvelous
151 25°N 71°W Jun 20, 2022 $9.99N/A (N/A)0 .. 20,0000%00:00 (00:00)SE {} KSSE {} KS
152 Fishing Paradiso Jun 1, 2022 $14.99N/A (N/A)0 .. 20,0000%00:00 (00:00)OdencatOdencat
153 Kapital13 May 26, 2022 $8.99N/A (N/A)0 .. 20,0000%00:00 (00:00)Ethernal StudioEthernal Studio
154 Pirate fishing May 16, 2022 $9.99N/A (N/A)0 .. 20,0000%00:00 (00:00)Neki4 ElectronicsNeki4 Electronics
155 Harvest Days: My Dream Farm May 12, 2022 $14.99N/A (N/A)0 .. 20,0000%00:00 (00:00)Family DevsFamily Devs, Toplitz Productions
156 Fantasy Fishing Town May 9, 2022 $6.99N/A (N/A)0 .. 20,0000%00:00 (00:00)RainbowStudioRainbowStudio
157 The Farmer's Story of Slow Life May 7, 2022 $24.99N/A (N/A)0 .. 20,0000%00:00 (00:00)OikariBunchoOikariBuncho
158 Fishing Vacation Apr 20, 2022 $1.99N/A (N/A)0 .. 20,0000%00:00 (00:00)Teebowah Games, LameboySPTeebowah Games
159 Hot Spring Hero Apr 8, 2022 $11.39N/A (N/A)20,000 .. 50,0000%00:00 (00:00)EXAMGAMESOTAKU Plan
160 Picontier / ピコンティア Mar 31, 2022 $24.99N/A (N/A)0 .. 20,0000%00:00 (00:00)SKIPMORE, Kan.KikuchiFlyhigh Works
161 SUMMER VACATION Mar 23, 2022 N/AN/A (N/A)0 .. 20,0000%00:00 (00:00)ALPHA-NEXTALPHA-NEXT
162 Village Monsters Mar 22, 2022 $14.99N/A (N/A)0 .. 20,0000%00:00 (00:00)Josh BossieJosh Bossie
163 No Place Like Home Mar 17, 2022 $19.99N/A (N/A)100,000 .. 200,0000%00:00 (00:00)Chicken LauncherAwaken Realms
164 Epics of Distant Realm: Holy Return Mar 16, 2022 $0.99N/A (N/A)50,000 .. 100,0000%00:00 (00:00)Emir Suleiman, Tayfun TunaChronoVision
165 Tabbellarius Mar 8, 2022 $4.99N/A (N/A)20,000 .. 50,0000%00:00 (00:00)Martin BauerSquareware
166 Pengu Never Left Feb 20, 2022 $1.99N/A (N/A)0 .. 20,0000%00:00 (00:00)SchweggSchwegg
167 Isle of Jura Feb 11, 2022 $4.99N/A (N/A)0 .. 20,0000%00:00 (00:00)EM GamesEM Games, Sedoc LLC
168 Furries & Scalies & Scarecrows OH MY! Jan 28, 2022 $9.99N/A (N/A)0 .. 20,0000%00:00 (00:00)Stegalosaurus Game DevelopmentStegalosaurus Game Development
169 Fishing Adventure VR Jan 7, 2022 $11.99N/A (N/A)0 .. 20,0000%00:00 (00:00)Ultimate VRSIG Publishing
170 Edengrall Jan 7, 2022 $14.99N/A (N/A)0 .. 20,0000%00:00 (00:00)Fables of LaetusFables of Laetus
171 Mysteries Under Lake Ophelia Dec 22, 2021 $4.99N/A (N/A)0 .. 20,0000%00:00 (00:00)Bryce BucherBryce Bucher
172 Rune Factory 4 Special Dec 7, 2021 $29.99N/A (N/A)50,000 .. 100,0000%00:00 (00:00)Marvelous Inc.XSEED Games, Marvelous USA, Inc., Marvelous
173 Fishing at Lotus Lakes Nov 26, 2021 $3.99N/A (N/A)0 .. 20,0000%00:00 (00:00)William at OxfordWilliam at Oxford
174 Cat Fish Island Nov 23, 2021 $4.99N/A (N/A)0 .. 20,0000%00:00 (00:00)RedZyrroRedZyrro
175 Hero of the Kingdom: The Lost Tales 2 Nov 19, 2021 $6.99N/A (N/A)50,000 .. 100,0000%00:00 (00:00)Lonely TroopsLonely Troops
176 Melvor Idle Nov 18, 2021 $9.99N/A (N/A)500,000 .. 1,000,0000%00:00 (00:00)Games by MalcsJagex Ltd
177 SUPER ICK Nov 16, 2021 $2.99N/A (N/A)20,000 .. 50,0000%00:00 (00:00)Ethan GoldreyerEthan Goldreyer
178 DYSMANTLE Nov 16, 2021 $19.99N/A (N/A)200,000 .. 500,0000%00:00 (00:00)10tons Ltd10tons Ltd
179 Star Fisher Nov 10, 2021 $2.99N/A (N/A)0 .. 20,0000%00:00 (00:00)Pulse Check GamesPulse Check Games
180 A Fishy RPG Nov 5, 2021 $0.99N/A (N/A)0 .. 20,0000%00:00 (00:00)LGVLGV
181 Forest Farm Nov 3, 2021 $14.99N/A (N/A)0 .. 20,0000%00:00 (00:00)Nic SchubertTonic Games Australia
182 Dragon Kingdom Oct 29, 2021 $4.99N/A (N/A)0 .. 20,0000%00:00 (00:00)Dark Royalty StudiosDark Royalty Studios
183 Voxel Farm Island Oct 28, 2021 $7.99N/A (N/A)0 .. 20,0000%00:00 (00:00)LQ-GAMELQ-GAME
184 Bassmaster Fishing Oct 28, 2021 $24.99N/A (N/A)0 .. 20,0000%00:00 (00:00)Dovetail GamesDovetail Games - Fishing
185 Moonglow Bay Oct 26, 2021 $24.99N/A (N/A)20,000 .. 50,0000%00:00 (00:00)BunnyhugCoatsink
186 Shoal Oct 24, 2021 $6.99N/A (N/A)0 .. 20,0000%00:00 (00:00)VidroidVidroid
187 Chef's Tail Oct 22, 2021 $8.99N/A (N/A)0 .. 20,0000%00:00 (00:00)Art Games Studio S.A.Art Games Studio S.A.
188 Touhou Adventure Oct 20, 2021 $4.99N/A (N/A)0 .. 20,0000%00:00 (00:00)Crimson Games DevCrimson Games Dev
189 Sailwind Oct 18, 2021 $19.99N/A (N/A)50,000 .. 100,0000%00:00 (00:00)Raw Lion WorkshopRaw Lion Workshop
190 Nira Oct 14, 2021 $9.99N/A (N/A)20,000 .. 50,0000%00:00 (00:00)Baseline GamesGraffiti Games
191 Carp Fishing Simulator Oct 14, 2021 $18.99N/A (N/A)0 .. 20,0000%00:00 (00:00)Dangerous Derk InteractiveDangerous Derk Interactive
192 GoldfishFlap Oct 12, 2021 FreeN/A (N/A)0 .. 20,0000%00:00 (00:00)Beshu, GoldfishFlapBeshu
193 Pearls of the Oceans Oct 4, 2021 $0.99N/A (N/A)0 .. 20,0000%00:00 (00:00)Group Launch Inc.Booster PlayGroup Launch Inc.Booster Play
194 Once Upon a Time in the Colony Oct 2, 2021 $4.99N/A (N/A)0 .. 20,0000%00:00 (00:00)Song Qiang ShengSong Qiang Sheng
195 Surviving West Sep 24, 2021 $9.99N/A (N/A)0 .. 20,0000%00:00 (00:00)Nemo StudiosNemo Studios
196 I Am Fish Sep 16, 2021 $19.99N/A (N/A)100,000 .. 200,0000%00:00 (00:00)Bossa StudiosCurve Games
197 Totemlands Sep 3, 2021 $2.99N/A (N/A)0 .. 20,0000%00:00 (00:00)HobofellerHobofeller
198 Monster Harvest Aug 31, 2021 $16.99N/A (N/A)20,000 .. 50,0000%00:00 (00:00)Maple Powered GamesMerge Games
199 Fifefer Island - Terrena's Adventure Aug 16, 2021 $9.99N/A (N/A)50,000 .. 100,0000%00:00 (00:00)Power Parametrics LLCPower Parametrics LLC
200 Here Comes Niko! Aug 3, 2021 $24.99N/A (N/A)100,000 .. 200,0000%00:00 (00:00)Frog VibesGears for Breakfast
201 Seafarers Aug 1, 2021 $4.99N/A (N/A)0 .. 20,0000%00:00 (00:00)Egghead Interactive LLC.Egghead Interactive LLC.
202 Salt and Sails Jul 1, 2021 $9.99N/A (N/A)0 .. 20,0000%00:00 (00:00)DiaMMaxPiece Of Voxel
203 Aeris&Zack Jun 18, 2021 $3.99N/A (N/A)0 .. 20,0000%00:00 (00:00)CWGameStudioCWGameStudio
204 Frosty Jumper Jun 17, 2021 $0.99N/A (N/A)0 .. 20,0000%00:00 (00:00)Anderson do ValeAnderson do Vale
205 Luna's Fishing Garden Jun 16, 2021 $7.99N/A (N/A)50,000 .. 100,0000%00:00 (00:00)Coldwild Games, illufinchColdwild Games
206 Clawfish Jun 11, 2021 $2.99N/A (N/A)0 .. 20,0000%00:00 (00:00)David Czarnowskidavidczar
207 Little Big Guy Jun 10, 2021 $2.99N/A (N/A)20,000 .. 50,0000%00:00 (00:00)Albatross IdeaAlbatross Idea
208 The Chronicler Jun 2, 2021 $6.99N/A (N/A)0 .. 20,0000%00:00 (00:00)O.N. Arts and GamesO.N. Arts and Games
209 Fish Person Shooter May 20, 2021 $12.99N/A (N/A)0 .. 20,0000%00:00 (00:00)8AH8AH
210 Marooned May 8, 2021 $2.99N/A (N/A)0 .. 20,0000%00:00 (00:00)Mika PiMika Pi
211 Floogen May 5, 2021 $0.99N/A (N/A)0 .. 20,0000%00:00 (00:00)Ian LevesqueIan Levesque
212 CryoFall Apr 29, 2021 $2.99N/A (N/A)200,000 .. 500,0000%00:00 (00:00)AtomicTorch StudioDaedalic Entertainment
213 Fisherman Classic Apr 23, 2021 $0.99N/A (N/A)0 .. 20,0000%00:00 (00:00)LGVLGV
214 Fish Feast Apr 9, 2021 $4.99N/A (N/A)50,000 .. 100,0000%00:00 (00:00)Aigi StudiosAigi Studios
215 Creatura Mar 31, 2021 $1.49N/A (N/A)0 .. 20,0000%00:00 (00:00)Koksny.comFreeMind S.A., Koksny.com
216 Be Hero Mar 30, 2021 $12.99N/A (N/A)0 .. 20,0000%00:00 (00:00)Mirabolis StudiosMirabolis Studios
217 F.I.S.H. Mar 25, 2021 $7.99N/A (N/A)0 .. 20,0000%00:00 (00:00)Tim KashaniFireapples
218 100 hidden mushrooms Mar 23, 2021 $0.99N/A (N/A)50,000 .. 100,0000%00:00 (00:00)Anatoliy Loginovskikh, Catherine SvyatayaAnatoliy Loginovskikh
219 Ecosystem Mar 16, 2021 $19.99N/A (N/A)20,000 .. 50,0000%00:00 (00:00)Tom JohnsonSlug Disco
220 Cold Breath Feb 24, 2021 $2.99N/A (N/A)0 .. 20,0000%00:00 (00:00)celikgamescelikgames
221 Rogue Heroes: Ruins of Tasos Feb 23, 2021 $1.99N/A (N/A)200,000 .. 500,0000%00:00 (00:00)Heliocentric StudiosTeam17 Digital
222 Learning Factory Feb 18, 2021 $14.99N/A (N/A)50,000 .. 100,0000%00:00 (00:00)Luden.ioLuden.io
223 Island Raft Survival 2021: Ocean Escape Feb 12, 2021 $2.99N/A (N/A)20,000 .. 50,0000%00:00 (00:00)Francolins studioFive River Solutions
224 Worldwide Sports Fishing Feb 3, 2021 $9.99N/A (N/A)0 .. 20,0000%00:00 (00:00)Lotte|EoDAgger Interactive
225 Wild Workshop Jan 28, 2021 N/AN/A (N/A)50,000 .. 100,0000%00:00 (00:00)PRIMATE GAMES CO., LTD.PRIMATE GAMES CO., LTD.
226 Phoenotopia: Awakening Jan 21, 2021 $19.99N/A (N/A)200,000 .. 500,0000%00:00 (00:00)Cape CosmicCape Cosmic, Flyhigh Works
227 Fun Christmas Santa VR Dec 23, 2020 $9.99N/A (N/A)0 .. 20,0000%00:00 (00:00)VR-EXODUSVR-EXODUS
228 Fishticuffs Dec 21, 2020 $4.99N/A (N/A)20,000 .. 50,0000%00:00 (00:00)YokcosYokcos
229 SantaCraft Dec 15, 2020 $9.99N/A (N/A)0 .. 20,0000%00:00 (00:00)Milkbag GamesMilkbag Games
230 Faraway Islands Dec 13, 2020 $3.99N/A (N/A)20,000 .. 50,0000%00:00 (00:00)bocobocbocoboc
231 Anime Play Life: Unlimited Dec 4, 2020 $17.99N/A (N/A)20,000 .. 50,0000%00:00 (00:00)Redicion StudioRedicion Studio
232 Pocket Penguin DX ( ポケットペンギン): A Retro Style Adventure Nov 15, 2020 $6.99N/A (N/A)0 .. 20,0000%00:00 (00:00)Dog Biscuit StudiosDog Biscuit Studios
233 Fish and Groove Nov 10, 2020 $0.99N/A (N/A)0 .. 20,0000%00:00 (00:00)IndigoWareIndigoWare
234 Fishing Sim World: Bass Pro Shops Edition Nov 3, 2020 $39.99N/A (N/A)0 .. 20,0000%00:00 (00:00)Dovetail GamesPlanet Entertainment
235 Good puzzle Oct 23, 2020 $2.99N/A (N/A)0 .. 20,0000%00:00 (00:00)Laush Dmitriy SergeevichLaush Studio
236 Fish Glutton Oct 22, 2020 $4.99N/A (N/A)20,000 .. 50,0000%00:00 (00:00)PointBlassPointBlass
237 Fishing: North Atlantic - Enhanced Edition Oct 16, 2020 $34.99N/A (N/A)200,000 .. 500,0000%00:00 (00:00)Misc GamesMisc Games
238 Taiga Oct 8, 2020 $1.99N/A (N/A)0 .. 20,0000%00:00 (00:00)Limitless ImaginationLimitless Imagination
239 Eat or DIE! Oct 6, 2020 $4.99N/A (N/A)0 .. 20,0000%00:00 (00:00)The Big StudioThe Big Studio
240 9th Dawn III Oct 5, 2020 $15.99N/A (N/A)20,000 .. 50,0000%00:00 (00:00)ValorwareValorware
241 Survive or Thrive Sep 7, 2020 $1.99N/A (N/A)0 .. 20,0000%00:00 (00:00)Randumb StudiosRandumb Studios
242 Le Voyage de Toki Aug 31, 2020 $5.99N/A (N/A)0 .. 20,0000%00:00 (00:00)AnAppleChurrosAnAppleChurros
243 Pixel Ninja Aug 10, 2020 $7.99N/A (N/A)0 .. 20,0000%00:00 (00:00)Nacks SoftNacks Soft
244 Littlewood Aug 4, 2020 $14.99N/A (N/A)200,000 .. 500,0000%00:00 (00:00)Sean YoungSmashGames
245 Verdant Village Aug 4, 2020 $14.99N/A (N/A)0 .. 20,0000%00:00 (00:00)Exodus SoftwareExodus Software
246 Arctic Anxiety Jul 2, 2020 $2.99N/A (N/A)20,000 .. 50,0000%00:00 (00:00)Arctic StudioArctic Studio
247 Freediving Hunter Spearfishing the World Jul 1, 2020 $19.99N/A (N/A)0 .. 20,0000%00:00 (00:00)Strongbox3dStrongbox3d
248 The Catch: Carp & Coarse Fishing Jun 30, 2020 $14.99N/A (N/A)0 .. 20,0000%00:00 (00:00)Dovetail GamesDovetail Games - Fishing
249 Yuri Ogibalov's Bizarre Adventure Jun 25, 2020 $2.99N/A (N/A)50,000 .. 100,0000%00:00 (00:00)OKONNAYA RAMAOKONNAYA RAMA
250 Shattered Hourglass Apr 29, 2020 $4.99N/A (N/A)20,000 .. 50,0000%00:00 (00:00)sawworm Gamessawworm Games
251 Intergalactic Fishing Apr 21, 2020 $14.99N/A (N/A)0 .. 20,0000%00:00 (00:00)Boat Anchor GamesBoat Anchor Games
252 Alchemy Story Apr 15, 2020 $19.99N/A (N/A)0 .. 20,0000%00:00 (00:00)Cozy Bee GamesCozy Bee Games
253 Deadliest Catch: The Game Apr 14, 2020 $19.99N/A (N/A)100,000 .. 200,0000%00:00 (00:00)4FishingUltimate Games S.A.
254 Sea Fishing Simulator Feb 20, 2020 $9.99N/A (N/A)0 .. 20,0000%00:00 (00:00)Dangerous Derk InteractiveDangerous Derk Interactive
255 Fish Simulator: Aquarium Manager Feb 10, 2020 $9.99N/A (N/A)0 .. 20,0000%00:00 (00:00)DuoBonzaDuoBonza
Overview

Fishing

Games with this tag: 255
Average userscore: N/A%
Average metascore: 75%
Average playtime: 00:00
Total copies owned: 22,740,000
Average price: $11.56
Help

Owners: Estimated number of people owning this game. The number might be way too small for new releases and sometimes way too big for games that had free weekend event recently. Read more on About page.

Playtime: Average hours played in total per person that have actually launched this game since March 2009. This time is calculated for the whole lifetime, not for the particular year.

Average score: Average users and metacritic score for all games with this score assigned.

Average playtime: Average lifetime playtime for all games where this data is available.

Games in this genre: Self-explaining - number of games with this tag. Only inculdes games with sales data available.

Total copies owned: Refers to total copies of games with this tag acquired by users for the lifetime. Includes copies sold, downloaded for free and given out.

This number might be too small for recently released games or too big for games that had a free weekend in the last couple of months.

Graphs

Login required.

Please register or log in to see this information.

Login required.

Please register or log in to see this information.